Akra, North Dakota
Current Conditions -  °F | °C
As of 8:35 AM on Saturday 01 Nov 2014 (Local Time) from K2C8 Reporting Station
Clear Clear  
Wind Chill: 17°   Ceiling: Unl
Heat Index: 30°   Visibility: 10mi
Dew Point: 18°   Wind: 21mph
Humidity: 60%   Direction: 170°S
Pressure: 30.08"   Gusts: 25mph
Location:  48.8218°N, 97.697°W
Report Text: K2C8 011335Z AUTO 17018G22KT 10SM CLR M01/M08 A3008 RMK AO2
Loading
Personal Weather Stations






























Interactive Weather Map
Tropical Storm Tracking
New forecast layout! Learn more

10-Day Weather Forecast

Advertisements
Track Severe Weather on mobile